sensor_id;sensor_type;location;lat;lon;timestamp;temperature;humidity
22069;DHT22;13887;57.196;-2.100;2023-04-15T00:00:55;8.77;80.27
22069;DHT22;13887;57.196;-2.100;2023-04-15T00:03:23;8.78;80.22
22069;DHT22;13887;57.196;-2.100;2023-04-15T00:05:50;8.80;80.17
22069;DHT22;13887;57.196;-2.100;2023-04-15T00:08:17;8.80;80.15
22069;DHT22;13887;57.196;-2.100;2023-04-15T00:10:45;8.80;80.20
22069;DHT22;13887;57.196;-2.100;2023-04-15T00:13:12;8.80;80.29
22069;DHT22;13887;57.196;-2.100;2023-04-15T00:15:39;8.81;80.17
22069;DHT22;13887;57.196;-2.100;2023-04-15T00:18:08;8.80;80.20
22069;DHT22;13887;57.196;-2.100;2023-04-15T00:20:35;8.79;80.31
22069;DHT22;13887;57.196;-2.100;2023-04-15T00:23:02;8.79;80.33
22069;DHT22;13887;57.196;-2.100;2023-04-15T00:25:30;8.79;80.46
22069;DHT22;13887;57.196;-2.100;2023-04-15T00:27:57;8.79;80.33
22069;DHT22;13887;57.196;-2.100;2023-04-15T00:30:24;8.80;80.41
22069;DHT22;13887;57.196;-2.100;2023-04-15T00:32:52;8.80;80.46
22069;DHT22;13887;57.196;-2.100;2023-04-15T00:35:21;8.78;80.50
22069;DHT22;13887;57.196;-2.100;2023-04-15T00:37:49;8.77;80.73
22069;DHT22;13887;57.196;-2.100;2023-04-15T00:40:18;8.78;80.70
22069;DHT22;13887;57.196;-2.100;2023-04-15T00:42:46;8.81;80.62
22069;DHT22;13887;57.196;-2.100;2023-04-15T00:45:13;8.79;80.69
22069;DHT22;13887;57.196;-2.100;2023-04-15T00:47:42;8.80;80.67
22069;DHT22;13887;57.196;-2.100;2023-04-15T00:50:10;8.80;80.75
22069;DHT22;13887;57.196;-2.100;2023-04-15T00:52:38;8.82;80.72
22069;DHT22;13887;57.196;-2.100;2023-04-15T00:55:06;8.80;80.97
22069;DHT22;13887;57.196;-2.100;2023-04-15T00:57:35;8.80;81.17
22069;DHT22;13887;57.196;-2.100;2023-04-15T01:00:02;8.78;81.27
22069;DHT22;13887;57.196;-2.100;2023-04-15T01:02:31;8.81;81.10
22069;DHT22;13887;57.196;-2.100;2023-04-15T01:05:01;8.82;81.06
22069;DHT22;13887;57.196;-2.100;2023-04-15T01:07:28;8.81;81.12
22069;DHT22;13887;57.196;-2.100;2023-04-15T01:09:55;8.81;81.25
22069;DHT22;13887;57.196;-2.100;2023-04-15T01:12:25;8.81;81.17
22069;DHT22;13887;57.196;-2.100;2023-04-15T01:14:54;8.81;81.23
22069;DHT22;13887;57.196;-2.100;2023-04-15T01:17:23;8.80;81.29
22069;DHT22;13887;57.196;-2.100;2023-04-15T01:19:50;8.80;81.39
22069;DHT22;13887;57.196;-2.100;2023-04-15T01:22:18;8.79;81.20
22069;DHT22;13887;57.196;-2.100;2023-04-15T01:27:49;8.79;81.30
22069;DHT22;13887;57.196;-2.100;2023-04-15T01:30:16;8.80;81.27
22069;DHT22;13887;57.196;-2.100;2023-04-15T01:32:43;8.81;81.48
22069;DHT22;13887;57.196;-2.100;2023-04-15T01:35:10;8.81;81.33
22069;DHT22;13887;57.196;-2.100;2023-04-15T01:37:37;8.80;81.40
22069;DHT22;13887;57.196;-2.100;2023-04-15T01:40:05;8.81;81.32
22069;DHT22;13887;57.196;-2.100;2023-04-15T01:42:33;8.78;81.50
22069;DHT22;13887;57.196;-2.100;2023-04-15T01:45:01;8.80;81.49
22069;DHT22;13887;57.196;-2.100;2023-04-15T01:47:29;8.77;81.59
22069;DHT22;13887;57.196;-2.100;2023-04-15T01:49:56;8.78;81.55
22069;DHT22;13887;57.196;-2.100;2023-04-15T01:52:22;8.76;81.72
22069;DHT22;13887;57.196;-2.100;2023-04-15T01:54:50;8.78;81.68
22069;DHT22;13887;57.196;-2.100;2023-04-15T01:57:18;8.78;81.74
22069;DHT22;13887;57.196;-2.100;2023-04-15T02:00:11;8.75;81.76
22069;DHT22;13887;57.196;-2.100;2023-04-15T02:02:41;8.76;81.80
22069;DHT22;13887;57.196;-2.100;2023-04-15T02:05:08;8.77;81.94
22069;DHT22;13887;57.196;-2.100;2023-04-15T02:07:35;8.77;81.78
22069;DHT22;13887;57.196;-2.100;2023-04-15T02:10:03;8.78;81.77
22069;DHT22;13887;57.196;-2.100;2023-04-15T02:12:31;8.77;81.77
22069;DHT22;13887;57.196;-2.100;2023-04-15T02:14:59;8.76;81.96
22069;DHT22;13887;57.196;-2.100;2023-04-15T02:17:25;8.79;81.90
22069;DHT22;13887;57.196;-2.100;2023-04-15T02:19:54;8.77;81.78
22069;DHT22;13887;57.196;-2.100;2023-04-15T02:22:23;8.78;81.83
22069;DHT22;13887;57.196;-2.100;2023-04-15T02:24:50;8.77;81.94
22069;DHT22;13887;57.196;-2.100;2023-04-15T02:27:18;8.74;82.15
22069;DHT22;13887;57.196;-2.100;2023-04-15T02:29:45;8.74;82.14
22069;DHT22;13887;57.196;-2.100;2023-04-15T02:32:12;8.73;82.07
22069;DHT22;13887;57.196;-2.100;2023-04-15T02:34:41;8.74;82.06
22069;DHT22;13887;57.196;-2.100;2023-04-15T02:37:10;8.72;82.11
22069;DHT22;13887;57.196;-2.100;2023-04-15T02:39:38;8.72;82.22
22069;DHT22;13887;57.196;-2.100;2023-04-15T02:42:04;8.67;82.29
22069;DHT22;13887;57.196;-2.100;2023-04-15T02:44:32;8.66;82.38
22069;DHT22;13887;57.196;-2.100;2023-04-15T02:47:01;8.70;82.33
22069;DHT22;13887;57.196;-2.100;2023-04-15T02:49:30;8.66;82.54
22069;DHT22;13887;57.196;-2.100;2023-04-15T02:51:59;8.61;82.81
22069;DHT22;13887;57.196;-2.100;2023-04-15T02:54:26;8.60;82.79
22069;DHT22;13887;57.196;-2.100;2023-04-15T02:56:56;8.59;83.07
22069;DHT22;13887;57.196;-2.100;2023-04-15T02:59:23;8.57;83.18
22069;DHT22;13887;57.196;-2.100;2023-04-15T03:01:50;8.60;82.96
22069;DHT22;13887;57.196;-2.100;2023-04-15T03:04:17;8.58;82.98
22069;DHT22;13887;57.196;-2.100;2023-04-15T03:06:44;8.56;83.16
22069;DHT22;13887;57.196;-2.100;2023-04-15T03:09:11;8.57;83.25
22069;DHT22;13887;57.196;-2.100;2023-04-15T03:11:38;8.57;83.16
22069;DHT22;13887;57.196;-2.100;2023-04-15T03:14:09;8.56;83.11
22069;DHT22;13887;57.196;-2.100;2023-04-15T03:16:40;8.58;82.97
22069;DHT22;13887;57.196;-2.100;2023-04-15T03:19:07;8.62;82.59
22069;DHT22;13887;57.196;-2.100;2023-04-15T03:21:36;8.62;82.56
22069;DHT22;13887;57.196;-2.100;2023-04-15T03:24:03;8.63;82.44
22069;DHT22;13887;57.196;-2.100;2023-04-15T03:26:30;8.61;82.52
22069;DHT22;13887;57.196;-2.100;2023-04-15T03:29:01;8.61;82.52
22069;DHT22;13887;57.196;-2.100;2023-04-15T03:31:29;8.62;82.49
22069;DHT22;13887;57.196;-2.100;2023-04-15T03:33:56;8.63;82.41
22069;DHT22;13887;57.196;-2.100;2023-04-15T03:36:23;8.63;82.39
22069;DHT22;13887;57.196;-2.100;2023-04-15T03:38:51;8.61;82.40
22069;DHT22;13887;57.196;-2.100;2023-04-15T03:41:19;8.61;82.46
22069;DHT22;13887;57.196;-2.100;2023-04-15T03:43:46;8.62;82.26
22069;DHT22;13887;57.196;-2.100;2023-04-15T03:46:13;8.60;82.42
22069;DHT22;13887;57.196;-2.100;2023-04-15T03:48:40;8.61;82.33
22069;DHT22;13887;57.196;-2.100;2023-04-15T03:51:07;8.59;82.39
22069;DHT22;13887;57.196;-2.100;2023-04-15T03:53:34;8.58;82.46
22069;DHT22;13887;57.196;-2.100;2023-04-15T03:56:01;8.56;82.47
22069;DHT22;13887;57.196;-2.100;2023-04-15T03:58:28;8.57;82.47
22069;DHT22;13887;57.196;-2.100;2023-04-15T04:00:55;8.59;82.50
22069;DHT22;13887;57.196;-2.100;2023-04-15T04:03:22;8.57;82.35
22069;DHT22;13887;57.196;-2.100;2023-04-15T04:05:51;8.52;82.66
22069;DHT22;13887;57.196;-2.100;2023-04-15T04:08:17;8.51;82.73
22069;DHT22;13887;57.196;-2.100;2023-04-15T04:10:46;8.55;82.52
22069;DHT22;13887;57.196;-2.100;2023-04-15T04:13:12;8.58;82.34
22069;DHT22;13887;57.196;-2.100;2023-04-15T04:15:39;8.56;82.30
22069;DHT22;13887;57.196;-2.100;2023-04-15T04:18:07;8.53;82.48
22069;DHT22;13887;57.196;-2.100;2023-04-15T04:20:34;8.52;82.52
22069;DHT22;13887;57.196;-2.100;2023-04-15T04:23:01;8.56;82.27
22069;DHT22;13887;57.196;-2.100;2023-04-15T04:25:28;8.53;82.38
22069;DHT22;13887;57.196;-2.100;2023-04-15T04:27:55;8.57;82.26
22069;DHT22;13887;57.196;-2.100;2023-04-15T04:30:23;8.57;82.29
22069;DHT22;13887;57.196;-2.100;2023-04-15T04:32:50;8.56;82.25
22069;DHT22;13887;57.196;-2.100;2023-04-15T04:35:17;8.57;82.10
22069;DHT22;13887;57.196;-2.100;2023-04-15T04:37:44;8.55;82.21
22069;DHT22;13887;57.196;-2.100;2023-04-15T04:40:12;8.55;82.12
22069;DHT22;13887;57.196;-2.100;2023-04-15T04:42:39;8.52;82.17
22069;DHT22;13887;57.196;-2.100;2023-04-15T04:45:08;8.50;82.24
22069;DHT22;13887;57.196;-2.100;2023-04-15T04:47:36;8.49;82.32
22069;DHT22;13887;57.196;-2.100;2023-04-15T04:50:04;8.50;82.10
22069;DHT22;13887;57.196;-2.100;2023-04-15T04:52:32;8.48;82.10
22069;DHT22;13887;57.196;-2.100;2023-04-15T04:54:59;8.44;82.20
22069;DHT22;13887;57.196;-2.100;2023-04-15T04:57:27;8.44;82.28
22069;DHT22;13887;57.196;-2.100;2023-04-15T04:59:54;8.46;82.23
22069;DHT22;13887;57.196;-2.100;2023-04-15T05:02:22;8.44;82.17
22069;DHT22;13887;57.196;-2.100;2023-04-15T05:04:49;8.39;82.32
22069;DHT22;13887;57.196;-2.100;2023-04-15T05:07:20;8.37;82.33
22069;DHT22;13887;57.196;-2.100;2023-04-15T05:09:46;8.38;82.35
22069;DHT22;13887;57.196;-2.100;2023-04-15T05:12:13;8.35;82.39
22069;DHT22;13887;57.196;-2.100;2023-04-15T05:14:41;8.34;82.42
22069;DHT22;13887;57.196;-2.100;2023-04-15T05:17:08;8.35;82.39
22069;DHT22;13887;57.196;-2.100;2023-04-15T05:19:35;8.36;82.33
22069;DHT22;13887;57.196;-2.100;2023-04-15T05:22:02;8.38;82.13
22069;DHT22;13887;57.196;-2.100;2023-04-15T05:24:29;8.35;82.26
22069;DHT22;13887;57.196;-2.100;2023-04-15T05:26:56;8.36;82.01
22069;DHT22;13887;57.196;-2.100;2023-04-15T05:29:23;8.35;82.09
22069;DHT22;13887;57.196;-2.100;2023-04-15T05:31:50;8.31;81.97
22069;DHT22;13887;57.196;-2.100;2023-04-15T05:34:17;8.34;82.00
22069;DHT22;13887;57.196;-2.100;2023-04-15T05:36:44;8.34;81.94
22069;DHT22;13887;57.196;-2.100;2023-04-15T05:39:11;8.32;81.86
22069;DHT22;13887;57.196;-2.100;2023-04-15T05:41:38;8.33;81.84
22069;DHT22;13887;57.196;-2.100;2023-04-15T05:44:05;8.27;81.97
22069;DHT22;13887;57.196;-2.100;2023-04-15T05:46:32;8.20;82.23
22069;DHT22;13887;57.196;-2.100;2023-04-15T05:49:00;8.18;82.31
22069;DHT22;13887;57.196;-2.100;2023-04-15T05:51:27;8.20;82.27
22069;DHT22;13887;57.196;-2.100;2023-04-15T05:53:54;8.26;82.18
22069;DHT22;13887;57.196;-2.100;2023-04-15T05:56:21;8.26;81.93
22069;DHT22;13887;57.196;-2.100;2023-04-15T05:58:48;8.24;81.84
22069;DHT22;13887;57.196;-2.100;2023-04-15T06:01:18;8.22;81.81
22069;DHT22;13887;57.196;-2.100;2023-04-15T06:03:45;8.20;81.84
22069;DHT22;13887;57.196;-2.100;2023-04-15T06:06:12;8.18;81.86
22069;DHT22;13887;57.196;-2.100;2023-04-15T06:08:39;8.13;82.17
22069;DHT22;13887;57.196;-2.100;2023-04-15T06:11:05;8.13;82.02
22069;DHT22;13887;57.196;-2.100;2023-04-15T06:13:32;8.15;82.01
22069;DHT22;13887;57.196;-2.100;2023-04-15T06:16:00;8.17;81.91
22069;DHT22;13887;57.196;-2.100;2023-04-15T06:18:27;8.18;81.77
22069;DHT22;13887;57.196;-2.100;2023-04-15T06:20:55;8.19;81.57
22069;DHT22;13887;57.196;-2.100;2023-04-15T06:23:23;8.18;81.41
22069;DHT22;13887;57.196;-2.100;2023-04-15T06:25:52;8.08;81.47
22069;DHT22;13887;57.196;-2.100;2023-04-15T06:28:19;8.08;81.48
22069;DHT22;13887;57.196;-2.100;2023-04-15T06:30:46;8.02;81.60
22069;DHT22;13887;57.196;-2.100;2023-04-15T06:33:13;8.04;81.56
22069;DHT22;13887;57.196;-2.100;2023-04-15T06:35:40;8.04;81.51
22069;DHT22;13887;57.196;-2.100;2023-04-15T06:38:07;8.03;81.54
22069;DHT22;13887;57.196;-2.100;2023-04-15T06:40:34;8.02;81.55
22069;DHT22;13887;57.196;-2.100;2023-04-15T06:43:01;8.06;81.52
22069;DHT22;13887;57.196;-2.100;2023-04-15T06:45:29;8.07;81.33
22069;DHT22;13887;57.196;-2.100;2023-04-15T06:47:57;8.12;81.10
22069;DHT22;13887;57.196;-2.100;2023-04-15T06:50:24;8.03;81.22
22069;DHT22;13887;57.196;-2.100;2023-04-15T06:52:53;8.02;81.34
22069;DHT22;13887;57.196;-2.100;2023-04-15T06:55:20;7.97;81.36
22069;DHT22;13887;57.196;-2.100;2023-04-15T06:57:47;7.99;81.33
22069;DHT22;13887;57.196;-2.100;2023-04-15T07:00:14;7.99;81.43
22069;DHT22;13887;57.196;-2.100;2023-04-15T07:02:41;7.96;81.50
22069;DHT22;13887;57.196;-2.100;2023-04-15T07:05:08;7.94;81.39
22069;DHT22;13887;57.196;-2.100;2023-04-15T07:07:35;8.02;81.29
22069;DHT22;13887;57.196;-2.100;2023-04-15T07:10:03;8.07;81.18
22069;DHT22;13887;57.196;-2.100;2023-04-15T07:12:30;8.12;81.02
22069;DHT22;13887;57.196;-2.100;2023-04-15T07:14:58;8.08;80.84
22069;DHT22;13887;57.196;-2.100;2023-04-15T07:17:25;8.02;81.04
22069;DHT22;13887;57.196;-2.100;2023-04-15T07:19:52;8.03;81.23
22069;DHT22;13887;57.196;-2.100;2023-04-15T07:22:19;8.03;81.11
22069;DHT22;13887;57.196;-2.100;2023-04-15T07:24:45;8.04;81.01
22069;DHT22;13887;57.196;-2.100;2023-04-15T07:27:13;8.06;81.07
22069;DHT22;13887;57.196;-2.100;2023-04-15T07:29:39;8.05;81.19
22069;DHT22;13887;57.196;-2.100;2023-04-15T07:32:07;8.06;81.01
22069;DHT22;13887;57.196;-2.100;2023-04-15T07:34:36;8.08;81.09
22069;DHT22;13887;57.196;-2.100;2023-04-15T07:37:03;8.13;81.14
22069;DHT22;13887;57.196;-2.100;2023-04-15T07:39:30;8.14;81.04
22069;DHT22;13887;57.196;-2.100;2023-04-15T07:41:57;8.15;80.99
22069;DHT22;13887;57.196;-2.100;2023-04-15T07:44:26;8.15;80.88
22069;DHT22;13887;57.196;-2.100;2023-04-15T07:46:53;8.11;80.96
22069;DHT22;13887;57.196;-2.100;2023-04-15T07:49:20;8.12;81.10
22069;DHT22;13887;57.196;-2.100;2023-04-15T07:51:47;8.12;81.19
22069;DHT22;13887;57.196;-2.100;2023-04-15T07:54:14;8.13;81.20
22069;DHT22;13887;57.196;-2.100;2023-04-15T07:56:42;8.13;81.22
22069;DHT22;13887;57.196;-2.100;2023-04-15T07:59:08;8.15;81.17
22069;DHT22;13887;57.196;-2.100;2023-04-15T08:01:36;8.16;81.27
22069;DHT22;13887;57.196;-2.100;2023-04-15T08:04:04;8.15;81.28
22069;DHT22;13887;57.196;-2.100;2023-04-15T08:06:31;8.15;81.31
22069;DHT22;13887;57.196;-2.100;2023-04-15T08:08:59;8.13;81.45
22069;DHT22;13887;57.196;-2.100;2023-04-15T08:11:28;8.11;81.62
22069;DHT22;13887;57.196;-2.100;2023-04-15T08:13:54;8.14;81.63
22069;DHT22;13887;57.196;-2.100;2023-04-15T08:16:24;8.16;81.40
22069;DHT22;13887;57.196;-2.100;2023-04-15T08:18:52;8.17;81.36
22069;DHT22;13887;57.196;-2.100;2023-04-15T08:21:19;8.19;81.28
22069;DHT22;13887;57.196;-2.100;2023-04-15T08:23:48;8.20;81.23
22069;DHT22;13887;57.196;-2.100;2023-04-15T08:26:16;8.22;81.23
22069;DHT22;13887;57.196;-2.100;2023-04-15T08:28:44;8.23;81.17
22069;DHT22;13887;57.196;-2.100;2023-04-15T08:31:13;8.23;81.20
22069;DHT22;13887;57.196;-2.100;2023-04-15T08:33:41;8.21;81.21
22069;DHT22;13887;57.196;-2.100;2023-04-15T08:36:09;8.21;81.26
22069;DHT22;13887;57.196;-2.100;2023-04-15T08:38:36;8.22;81.32
22069;DHT22;13887;57.196;-2.100;2023-04-15T08:41:08;8.23;81.38
22069;DHT22;13887;57.196;-2.100;2023-04-15T08:43:57;8.24;81.42
22069;DHT22;13887;57.196;-2.100;2023-04-15T08:46:24;8.28;81.19
22069;DHT22;13887;57.196;-2.100;2023-04-15T08:48:56;8.27;81.23
22069;DHT22;13887;57.196;-2.100;2023-04-15T08:51:24;8.24;81.50
22069;DHT22;13887;57.196;-2.100;2023-04-15T08:53:51;8.32;81.26
22069;DHT22;13887;57.196;-2.100;2023-04-15T08:56:24;8.33;81.37
22069;DHT22;13887;57.196;-2.100;2023-04-15T08:58:52;8.33;81.37
22069;DHT22;13887;57.196;-2.100;2023-04-15T09:01:19;8.34;81.33
22069;DHT22;13887;57.196;-2.100;2023-04-15T09:03:48;8.39;81.04
22069;DHT22;13887;57.196;-2.100;2023-04-15T09:06:17;8.45;80.81
22069;DHT22;13887;57.196;-2.100;2023-04-15T09:08:44;8.44;80.71
22069;DHT22;13887;57.196;-2.100;2023-04-15T09:11:11;8.45;80.70
22069;DHT22;13887;57.196;-2.100;2023-04-15T09:13:39;8.47;80.65
22069;DHT22;13887;57.196;-2.100;2023-04-15T09:16:06;8.46;80.69
22069;DHT22;13887;57.196;-2.100;2023-04-15T09:18:37;8.49;80.85
22069;DHT22;13887;57.196;-2.100;2023-04-15T09:21:10;8.52;80.87
22069;DHT22;13887;57.196;-2.100;2023-04-15T09:23:39;8.56;80.75
22069;DHT22;13887;57.196;-2.100;2023-04-15T09:26:07;8.57;80.88
22069;DHT22;13887;57.196;-2.100;2023-04-15T09:28:41;8.57;81.24
22069;DHT22;13887;57.196;-2.100;2023-04-15T09:31:09;8.57;81.39
22069;DHT22;13887;57.196;-2.100;2023-04-15T09:33:53;8.58;81.56
22069;DHT22;13887;57.196;-2.100;2023-04-15T09:36:21;8.60;81.73
22069;DHT22;13887;57.196;-2.100;2023-04-15T09:38:58;8.64;81.77
22069;DHT22;13887;57.196;-2.100;2023-04-15T09:41:27;8.62;82.19
22069;DHT22;13887;57.196;-2.100;2023-04-15T09:43:54;8.60;82.38
22069;DHT22;13887;57.196;-2.100;2023-04-15T09:46:40;8.60;82.58
22069;DHT22;13887;57.196;-2.100;2023-04-15T09:49:09;8.57;82.78
22069;DHT22;13887;57.196;-2.100;2023-04-15T09:51:37;8.56;83.00
22069;DHT22;13887;57.196;-2.100;2023-04-15T09:54:04;8.57;82.95
22069;DHT22;13887;57.196;-2.100;2023-04-15T09:56:35;8.56;82.93
22069;DHT22;13887;57.196;-2.100;2023-04-15T09:59:08;8.57;82.92
22069;DHT22;13887;57.196;-2.100;2023-04-15T10:01:35;8.58;82.75
22069;DHT22;13887;57.196;-2.100;2023-04-15T10:04:04;8.59;82.72
22069;DHT22;13887;57.196;-2.100;2023-04-15T10:06:33;8.60;82.41
22069;DHT22;13887;57.196;-2.100;2023-04-15T10:09:01;8.58;82.64
22069;DHT22;13887;57.196;-2.100;2023-04-15T10:11:28;8.59;82.69
22069;DHT22;13887;57.196;-2.100;2023-04-15T10:13:57;8.58;82.97
22069;DHT22;13887;57.196;-2.100;2023-04-15T10:16:26;8.58;83.10
22069;DHT22;13887;57.196;-2.100;2023-04-15T10:18:56;8.58;83.13
22069;DHT22;13887;57.196;-2.100;2023-04-15T10:21:24;8.60;83.05
22069;DHT22;13887;57.196;-2.100;2023-04-15T10:23:51;8.60;83.23
22069;DHT22;13887;57.196;-2.100;2023-04-15T10:26:18;8.61;83.03
22069;DHT22;13887;57.196;-2.100;2023-04-15T10:28:45;8.61;83.00
22069;DHT22;13887;57.196;-2.100;2023-04-15T10:31:14;8.60;83.06
22069;DHT22;13887;57.196;-2.100;2023-04-15T10:33:43;8.62;82.92
22069;DHT22;13887;57.196;-2.100;2023-04-15T10:36:10;8.63;82.97
22069;DHT22;13887;57.196;-2.100;2023-04-15T10:41:22;8.63;83.13
22069;DHT22;13887;57.196;-2.100;2023-04-15T10:44:00;8.63;83.13
22069;DHT22;13887;57.196;-2.100;2023-04-15T10:46:42;8.65;83.06
22069;DHT22;13887;57.196;-2.100;2023-04-15T10:49:12;8.70;83.01
22069;DHT22;13887;57.196;-2.100;2023-04-15T10:51:42;8.67;83.06
22069;DHT22;13887;57.196;-2.100;2023-04-15T10:54:32;8.70;83.16
22069;DHT22;13887;57.196;-2.100;2023-04-15T10:59:31;8.70;83.23
22069;DHT22;13887;57.196;-2.100;2023-04-15T11:02:03;8.71;83.10
22069;DHT22;13887;57.196;-2.100;2023-04-15T11:07:53;8.72;82.97
22069;DHT22;13887;57.196;-2.100;2023-04-15T11:12:59;8.78;82.76
22069;DHT22;13887;57.196;-2.100;2023-04-15T11:17:59;8.79;82.91
22069;DHT22;13887;57.196;-2.100;2023-04-15T11:20:34;8.78;82.91
22069;DHT22;13887;57.196;-2.100;2023-04-15T11:23:02;8.79;82.87
22069;DHT22;13887;57.196;-2.100;2023-04-15T11:25:42;8.80;82.87
22069;DHT22;13887;57.196;-2.100;2023-04-15T11:28:11;8.80;82.78
22069;DHT22;13887;57.196;-2.100;2023-04-15T11:30:39;8.82;82.86
22069;DHT22;13887;57.196;-2.100;2023-04-15T11:33:09;8.82;82.85
22069;DHT22;13887;57.196;-2.100;2023-04-15T11:35:40;8.83;82.86
22069;DHT22;13887;57.196;-2.100;2023-04-15T11:38:09;8.85;82.90
22069;DHT22;13887;57.196;-2.100;2023-04-15T11:40:39;8.86;82.81
22069;DHT22;13887;57.196;-2.100;2023-04-15T11:43:13;8.87;82.84
22069;DHT22;13887;57.196;-2.100;2023-04-15T11:48:14;8.88;83.02
22069;DHT22;13887;57.196;-2.100;2023-04-15T11:50:41;8.87;83.19
22069;DHT22;13887;57.196;-2.100;2023-04-15T11:53:11;8.88;83.23
22069;DHT22;13887;57.196;-2.100;2023-04-15T11:55:43;8.92;82.98
22069;DHT22;13887;57.196;-2.100;2023-04-15T11:58:23;8.96;82.91
22069;DHT22;13887;57.196;-2.100;2023-04-15T12:00:56;8.97;82.87
22069;DHT22;13887;57.196;-2.100;2023-04-15T12:03:27;8.97;82.88
22069;DHT22;13887;57.196;-2.100;2023-04-15T12:08:57;9.00;83.14
22069;DHT22;13887;57.196;-2.100;2023-04-15T12:11:39;9.04;83.12
22069;DHT22;13887;57.196;-2.100;2023-04-15T12:16:46;9.05;82.89
22069;DHT22;13887;57.196;-2.100;2023-04-15T12:19:54;9.09;82.79
22069;DHT22;13887;57.196;-2.100;2023-04-15T12:22:22;9.09;83.06
22069;DHT22;13887;57.196;-2.100;2023-04-15T12:24:53;9.10;82.99
22069;DHT22;13887;57.196;-2.100;2023-04-15T12:27:25;9.11;82.93
22069;DHT22;13887;57.196;-2.100;2023-04-15T12:30:03;9.11;83.08
22069;DHT22;13887;57.196;-2.100;2023-04-15T12:32:34;9.14;83.04
22069;DHT22;13887;57.196;-2.100;2023-04-15T12:35:02;9.12;83.07
22069;DHT22;13887;57.196;-2.100;2023-04-15T12:37:29;9.14;83.13
22069;DHT22;13887;57.196;-2.100;2023-04-15T12:39:56;9.15;83.34
22069;DHT22;13887;57.196;-2.100;2023-04-15T12:42:23;9.18;83.39
22069;DHT22;13887;57.196;-2.100;2023-04-15T12:44:49;9.22;83.15
22069;DHT22;13887;57.196;-2.100;2023-04-15T12:47:17;9.23;83.52
22069;DHT22;13887;57.196;-2.100;2023-04-15T12:49:45;9.24;83.68
22069;DHT22;13887;57.196;-2.100;2023-04-15T12:52:12;9.25;83.89
22069;DHT22;13887;57.196;-2.100;2023-04-15T12:54:41;9.25;83.71
22069;DHT22;13887;57.196;-2.100;2023-04-15T12:57:08;9.27;83.67
22069;DHT22;13887;57.196;-2.100;2023-04-15T12:59:35;9.31;83.39
22069;DHT22;13887;57.196;-2.100;2023-04-15T13:02:02;9.30;83.41
22069;DHT22;13887;57.196;-2.100;2023-04-15T13:04:29;9.32;83.44
22069;DHT22;13887;57.196;-2.100;2023-04-15T13:06:57;9.32;83.83
22069;DHT22;13887;57.196;-2.100;2023-04-15T13:09:24;9.34;83.49
22069;DHT22;13887;57.196;-2.100;2023-04-15T13:11:51;9.36;83.41
22069;DHT22;13887;57.196;-2.100;2023-04-15T13:14:20;9.37;83.26
22069;DHT22;13887;57.196;-2.100;2023-04-15T13:16:47;9.36;83.14
22069;DHT22;13887;57.196;-2.100;2023-04-15T13:19:14;9.38;82.89
22069;DHT22;13887;57.196;-2.100;2023-04-15T13:21:41;9.40;82.91
22069;DHT22;13887;57.196;-2.100;2023-04-15T13:24:08;9.41;82.76
22069;DHT22;13887;57.196;-2.100;2023-04-15T13:26:35;9.42;82.62
22069;DHT22;13887;57.196;-2.100;2023-04-15T13:29:03;9.46;82.48
22069;DHT22;13887;57.196;-2.100;2023-04-15T13:31:30;9.46;82.37
22069;DHT22;13887;57.196;-2.100;2023-04-15T13:33:57;9.48;82.29
22069;DHT22;13887;57.196;-2.100;2023-04-15T13:36:24;9.48;82.35
22069;DHT22;13887;57.196;-2.100;2023-04-15T13:38:52;9.48;82.55
22069;DHT22;13887;57.196;-2.100;2023-04-15T13:41:19;9.51;82.41
22069;DHT22;13887;57.196;-2.100;2023-04-15T13:43:47;9.51;82.26
22069;DHT22;13887;57.196;-2.100;2023-04-15T13:46:15;9.53;82.21
22069;DHT22;13887;57.196;-2.100;2023-04-15T13:48:42;9.54;82.01
22069;DHT22;13887;57.196;-2.100;2023-04-15T13:51:09;9.55;81.48
22069;DHT22;13887;57.196;-2.100;2023-04-15T13:53:36;9.57;81.25
22069;DHT22;13887;57.196;-2.100;2023-04-15T13:56:06;9.61;81.26
22069;DHT22;13887;57.196;-2.100;2023-04-15T13:58:34;9.62;80.94
22069;DHT22;13887;57.196;-2.100;2023-04-15T14:01:01;9.63;80.33
22069;DHT22;13887;57.196;-2.100;2023-04-15T14:03:32;9.63;80.34
22069;DHT22;13887;57.196;-2.100;2023-04-15T14:05:59;9.62;80.22
22069;DHT22;13887;57.196;-2.100;2023-04-15T14:08:26;9.66;80.07
22069;DHT22;13887;57.196;-2.100;2023-04-15T14:10:54;9.69;80.08
22069;DHT22;13887;57.196;-2.100;2023-04-15T14:13:21;9.70;80.12
22069;DHT22;13887;57.196;-2.100;2023-04-15T14:15:48;9.71;80.14
22069;DHT22;13887;57.196;-2.100;2023-04-15T14:18:15;9.76;79.79
22069;DHT22;13887;57.196;-2.100;2023-04-15T14:20:42;9.76;79.43
22069;DHT22;13887;57.196;-2.100;2023-04-15T14:23:09;9.74;79.29
22069;DHT22;13887;57.196;-2.100;2023-04-15T14:25:36;9.78;79.29
22069;DHT22;13887;57.196;-2.100;2023-04-15T14:28:04;9.80;79.54
22069;DHT22;13887;57.196;-2.100;2023-04-15T14:30:31;9.82;79.46
22069;DHT22;13887;57.196;-2.100;2023-04-15T14:32:59;9.83;79.57
22069;DHT22;13887;57.196;-2.100;2023-04-15T14:35:26;9.83;79.51
22069;DHT22;13887;57.196;-2.100;2023-04-15T14:37:54;9.83;79.85
22069;DHT22;13887;57.196;-2.100;2023-04-15T14:40:21;9.85;80.07
22069;DHT22;13887;57.196;-2.100;2023-04-15T14:42:48;9.85;80.14
22069;DHT22;13887;57.196;-2.100;2023-04-15T14:45:15;9.88;80.19
22069;DHT22;13887;57.196;-2.100;2023-04-15T14:47:43;9.89;80.16
22069;DHT22;13887;57.196;-2.100;2023-04-15T14:50:10;9.91;80.20
22069;DHT22;13887;57.196;-2.100;2023-04-15T14:52:38;9.91;80.12
22069;DHT22;13887;57.196;-2.100;2023-04-15T14:55:06;9.93;80.12
22069;DHT22;13887;57.196;-2.100;2023-04-15T14:57:33;9.93;80.30
22069;DHT22;13887;57.196;-2.100;2023-04-15T15:00:02;9.93;80.36
22069;DHT22;13887;57.196;-2.100;2023-04-15T15:02:30;9.94;80.72
22069;DHT22;13887;57.196;-2.100;2023-04-15T15:05:05;9.95;80.53
22069;DHT22;13887;57.196;-2.100;2023-04-15T15:07:32;9.96;80.61
22069;DHT22;13887;57.196;-2.100;2023-04-15T15:09:59;9.98;80.62
22069;DHT22;13887;57.196;-2.100;2023-04-15T15:12:26;10.01;81.39
22069;DHT22;13887;57.196;-2.100;2023-04-15T15:14:54;10.03;81.01
22069;DHT22;13887;57.196;-2.100;2023-04-15T15:17:21;10.03;81.01
22069;DHT22;13887;57.196;-2.100;2023-04-15T15:19:48;10.04;80.76
22069;DHT22;13887;57.196;-2.100;2023-04-15T15:22:15;10.04;80.54
22069;DHT22;13887;57.196;-2.100;2023-04-15T15:24:45;10.03;80.67
22069;DHT22;13887;57.196;-2.100;2023-04-15T15:27:11;10.07;81.04
22069;DHT22;13887;57.196;-2.100;2023-04-15T15:29:38;10.10;80.67
22069;DHT22;13887;57.196;-2.100;2023-04-15T15:32:05;10.10;80.74
22069;DHT22;13887;57.196;-2.100;2023-04-15T15:34:34;10.09;80.95
22069;DHT22;13887;57.196;-2.100;2023-04-15T15:37:01;10.08;80.94
22069;DHT22;13887;57.196;-2.100;2023-04-15T15:39:28;10.08;80.56
22069;DHT22;13887;57.196;-2.100;2023-04-15T15:41:55;10.07;80.69
22069;DHT22;13887;57.196;-2.100;2023-04-15T15:44:22;10.07;80.78
22069;DHT22;13887;57.196;-2.100;2023-04-15T15:46:49;10.09;80.92
22069;DHT22;13887;57.196;-2.100;2023-04-15T15:49:16;10.09;80.70
22069;DHT22;13887;57.196;-2.100;2023-04-15T15:51:43;10.08;80.64
22069;DHT22;13887;57.196;-2.100;2023-04-15T15:54:11;10.06;80.73
22069;DHT22;13887;57.196;-2.100;2023-04-15T15:56:38;10.07;80.77
22069;DHT22;13887;57.196;-2.100;2023-04-15T15:59:07;10.08;80.78
22069;DHT22;13887;57.196;-2.100;2023-04-15T16:01:34;10.06;80.94